Time;durP1;ratioP1;P1;durP2;ratioP2;P2;SDS_P1;SDS_P2;PMS_P1;PMS_P2;Temp;Humidity;BMP_temperature;BMP_pressure;BME280_temperature;BME280_humidity;BME280_pressure;Samples;Min_cycle;Max_cycle;Signal;HPM_P1;HPM_P2
2022/10/04 00:00:58;;;;;;;4.78;2.50;;;;;;;13.75;51.77;99776.63;3144576;28;20063;-62
2022/10/04 00:02:33;;;;;;;6.43;2.60;;;;;;;13.73;52.18;99775.91;3144578;28;20080;-61
2022/10/04 00:04:13;;;;;;;4.90;1.77;;;;;;;13.69;52.25;99772.59;3144842;28;20079;-61
2022/10/04 00:05:50;;;;;;;3.65;1.10;;;;;;;13.67;52.04;99771.03;3144796;28;20045;-62
2022/10/04 00:07:26;;;;;;;5.63;1.58;;;;;;;13.60;52.29;99770.53;3144777;28;20048;-62
2022/10/04 00:09:00;;;;;;;2.53;1.10;;;;;;;13.55;52.62;99777.81;3144559;28;20046;-62
2022/10/04 00:10:34;;;;;;;4.10;0.88;;;;;;;13.52;52.57;99773.59;3144621;28;20055;-62
2022/10/04 00:12:07;;;;;;;4.93;0.90;;;;;;;13.48;52.60;99771.25;3145020;28;20070;-62
2022/10/04 00:13:41;;;;;;;3.55;0.73;;;;;;;13.40;53.07;99761.25;3144657;28;20063;-62
2022/10/04 00:15:20;;;;;;;4.13;0.88;;;;;;;13.41;52.98;99765.53;3132132;28;20476;-62
2022/10/04 00:16:53;;;;;;;1.85;0.60;;;;;;;13.35;52.94;99766.72;3133250;28;20128;-62
2022/10/04 00:18:30;;;;;;;1.15;0.47;;;;;;;13.34;52.75;99767.66;3144755;28;20056;-62
2022/10/04 00:20:25;;;;;;;3.17;0.90;;;;;;;13.33;53.12;99762.50;3144786;28;20052;-62
2022/10/04 00:22:31;;;;;;;5.05;0.65;;;;;;;13.31;52.69;99764.34;3144660;28;20444;-62
2022/10/04 00:24:09;;;;;;;3.20;0.88;;;;;;;13.27;53.05;99757.63;3139549;28;20490;-61
2022/10/04 00:25:41;;;;;;;6.45;0.95;;;;;;;13.24;52.98;99753.38;3144476;28;20072;-61
2022/10/04 00:27:20;;;;;;;2.30;0.80;;;;;;;13.22;53.00;99752.59;3144523;28;20052;-61
2022/10/04 00:28:54;;;;;;;2.65;0.60;;;;;;;13.20;53.17;99742.25;3144860;28;20048;-62
2022/10/04 00:30:34;;;;;;;2.08;0.70;;;;;;;13.25;53.14;99752.50;3143971;28;20044;-62
2022/10/04 00:32:30;;;;;;;2.15;0.88;;;;;;;13.20;52.85;99731.78;3144728;28;20072;-62
2022/10/04 00:34:36;;;;;;;5.38;0.80;;;;;;;13.28;53.13;99754.06;3134406;28;20121;-62
2022/10/04 00:36:52;;;;;;;3.17;0.90;;;;;;;13.27;53.18;99768.91;3137204;28;20084;-62
2022/10/04 00:38:26;;;;;;;4.70;0.65;;;;;;;13.29;53.03;99771.47;3144512;28;20094;-62
2022/10/04 00:40:10;;;;;;;2.50;0.88;;;;;;;13.29;52.86;99767.06;3144462;28;20805;-62
2022/10/04 00:41:54;;;;;;;3.53;0.82;;;;;;;13.26;53.16;99767.25;3144397;28;20052;-62
2022/10/04 00:43:28;;;;;;;;;;;;;;;13.25;52.86;99773.41;3145157;28;20044;-62
2022/10/04 00:45:03;;;;;;;1.08;0.70;;;;;;;13.25;52.97;99769.91;3144345;28;20324;-62
2022/10/04 00:46:40;;;;;;;3.10;0.80;;;;;;;13.26;53.13;99776.88;3144472;28;20059;-62
2022/10/04 00:48:31;;;;;;;2.53;0.60;;;;;;;13.27;53.23;99770.69;3144430;28;20052;-62
2022/10/04 00:50:15;;;;;;;3.90;1.08;;;;;;;13.26;52.96;99771.63;3144465;28;20059;-62
2022/10/04 00:51:52;;;;;;;1.45;0.57;;;;;;;13.27;52.76;99774.16;3143235;28;20135;-61
2022/10/04 00:53:43;;;;;;;2.03;0.80;;;;;;;13.26;52.87;99772.47;3146793;28;20049;-62
2022/10/04 00:55:24;;;;;;;1.70;1.05;;;;;;;13.18;53.16;99753.72;3146510;28;20052;-62
2022/10/04 00:57:00;;;;;;;4.22;1.50;;;;;;;13.27;53.18;99768.91;3146420;28;20547;-62
2022/10/04 00:58:36;;;;;;;2.55;1.02;;;;;;;13.27;52.90;99765.47;3146551;28;20079;-62
2022/10/04 01:00:13;;;;;;;4.10;0.75;;;;;;;13.28;52.76;99770.63;3147226;28;20063;-62
2022/10/04 01:01:48;;;;;;;6.20;0.60;;;;;;;13.30;53.11;99773.13;3134252;28;20135;-62
2022/10/04 01:03:29;;;;;;;3.22;0.80;;;;;;;13.31;53.21;99775.69;3146878;28;20060;-62
2022/10/04 01:05:05;;;;;;;4.10;0.82;;;;;;;13.29;52.86;99766.22;3146600;28;20508;-61
2022/10/04 01:06:38;;;;;;;1.67;0.70;;;;;;;13.36;52.79;99780.63;3146411;28;20044;-61
2022/10/04 01:08:13;;;;;;;1.05;0.55;;;;;;;13.36;52.88;99773.63;3146958;28;20056;-61
2022/10/04 01:09:53;;;;;;;2.05;0.63;;;;;;;13.37;52.63;99771.88;3146284;28;20410;-62
2022/10/04 01:11:29;;;;;;;1.38;0.60;;;;;;;13.41;53.01;99770.75;3146722;28;20048;-62
2022/10/04 01:13:08;;;;;;;1.48;0.50;;;;;;;13.43;52.65;99769.75;3146342;28;20052;-61
2022/10/04 01:14:49;;;;;;;4.53;0.88;;;;;;;13.40;52.75;99762.06;3146755;28;20051;-61
2022/10/04 01:16:25;;;;;;;2.72;0.70;;;;;;;13.47;52.92;99769.56;3146719;28;20059;-62
2022/10/04 01:18:08;;;;;;;4.43;0.80;;;;;;;13.47;52.94;99769.56;3146482;28;20052;-62
2022/10/04 01:19:50;;;;;;;2.90;1.10;;;;;;;13.47;52.66;99774.81;3146482;28;20044;-62
2022/10/04 01:21:28;;;;;;;4.50;0.80;;;;;;;13.47;52.81;99774.81;3146252;28;20771;-61
2022/10/04 01:23:02;;;;;;;3.03;0.73;;;;;;;13.46;53.06;99780.94;3146540;28;20399;-62
2022/10/04 01:24:35;;;;;;;2.22;0.80;;;;;;;13.45;53.19;99766.19;3146229;28;20462;-61
2022/10/04 01:26:37;;;;;;;5.03;1.10;;;;;;;13.47;53.16;99774.81;3142821;28;20506;-62
2022/10/04 01:28:09;;;;;;;1.60;0.90;;;;;;;13.43;53.21;99774.13;3136468;28;20057;-62
2022/10/04 01:29:41;;;;;;;3.90;0.90;;;;;;;13.40;52.80;99769.91;3137682;28;20159;-62
2022/10/04 01:31:14;;;;;;;3.05;0.85;;;;;;;13.38;53.17;99779.63;3137726;28;20053;-62
2022/10/04 01:32:47;;;;;;;5.47;0.82;;;;;;;13.37;53.07;99769.25;3128456;28;20121;-61
2022/10/04 01:34:21;;;;;;;3.47;0.80;;;;;;;13.33;52.80;99775.56;3137144;28;20532;-62
2022/10/04 01:35:53;;;;;;;3.05;0.80;;;;;;;13.29;53.02;99776.69;3132266;28;20562;-62
2022/10/04 01:37:26;;;;;;;2.78;0.95;;;;;;;13.31;53.18;99780.91;3137716;28;20473;-61
2022/10/04 01:38:59;;;;;;;3.00;0.82;;;;;;;13.26;52.86;99771.63;3137111;28;20052;-61
2022/10/04 01:40:31;;;;;;;2.33;0.93;;;;;;;13.29;53.08;99782.75;3136272;28;20049;-62
2022/10/04 01:42:10;;;;;;;3.55;0.90;;;;;;;13.30;52.91;99781.81;3136331;28;20063;-61
2022/10/04 01:43:46;;;;;;;2.47;0.70;;;;;;;13.28;53.11;99790.69;3136634;28;20620;-62
2022/10/04 01:45:27;;;;;;;1.75;0.70;;;;;;;13.28;52.71;99788.94;3136951;28;20440;-62
2022/10/04 01:47:03;;;;;;;4.07;0.73;;;;;;;13.28;52.70;99790.69;3137232;28;20052;-61
2022/10/04 01:48:37;;;;;;;5.38;1.15;;;;;;;13.26;52.86;99782.09;3137084;28;20063;-61
2022/10/04 01:50:15;;;;;;;1.27;0.60;;;;;;;13.29;52.78;99788.00;3136096;28;20074;-62
2022/10/04 01:51:56;;;;;;;1.95;0.93;;;;;;;13.28;52.36;99790.69;3136611;28;20056;-62
2022/10/04 01:53:29;;;;;;;5.95;1.00;;;;;;;13.27;52.78;99791.63;3135841;28;20227;-62
2022/10/04 01:55:07;;;;;;;3.55;0.80;;;;;;;13.28;52.44;99790.69;3135939;28;20049;-62
2022/10/04 01:56:48;;;;;;;3.45;0.73;;;;;;;13.22;52.56;99786.59;3135676;28;20491;-62
2022/10/04 01:58:24;;;;;;;4.13;1.45;;;;;;;13.28;52.18;99799.41;3136909;28;20052;-62
2022/10/04 02:00:00;;;;;;;2.75;0.73;;;;;;;13.24;52.31;99794.38;3123471;28;20403;-62
2022/10/04 02:01:39;;;;;;;2.70;0.70;;;;;;;13.22;52.56;99797.06;3135871;28;20522;-62
2022/10/04 02:03:17;;;;;;;1.40;0.90;;;;;;;13.20;52.16;99798.94;3135871;28;20056;-62
2022/10/04 02:04:53;;;;;;;2.67;0.70;;;;;;;13.17;52.70;99792.09;3136396;28;20063;-62
2022/10/04 02:06:26;;;;;;;1.35;0.65;;;;;;;13.16;52.33;99779.09;3136290;28;20300;-62
2022/10/04 02:08:03;;;;;;;4.27;0.73;;;;;;;13.15;52.67;99790.50;3135688;28;20110;-62
2022/10/04 02:09:42;;;;;;;2.50;0.73;;;;;;;13.17;52.51;99788.66;3135805;28;20845;-62
2022/10/04 02:11:20;;;;;;;3.17;0.90;;;;;;;13.14;52.57;99783.59;3136169;28;20611;-62
2022/10/04 02:12:54;;;;;;;5.43;0.70;;;;;;;13.12;52.89;99788.06;3137157;28;20052;-61
2022/10/04 02:14:30;;;;;;;4.63;1.50;;;;;;;13.11;53.15;99791.63;3136737;28;20426;-62
2022/10/04 02:16:04;;;;;;;2.83;0.95;;;;;;;13.08;53.41;99783.94;3136949;28;20125;-61
2022/10/04 02:17:39;;;;;;;;;;;;;;;13.04;53.15;99790.25;3137361;28;20285;-62
2022/10/04 02:19:12;;;;;;;2.65;0.80;;;;;;;13.05;53.17;99797.19;3136339;28;19924;-62
2022/10/04 02:20:45;;;;;;;2.78;0.88;;;;;;;13.04;53.44;99793.69;3135578;28;20091;-62
2022/10/04 02:22:19;;;;;;;6.20;0.90;;;;;;;13.05;53.50;99791.97;3135631;28;20114;-62
2022/10/04 02:23:53;;;;;;;;;;;;;;;13.04;53.44;99785.03;3135832;28;20048;-62
2022/10/04 02:25:26;;;;;;;2.22;0.77;;;;;;;13.00;53.34;99789.59;3123179;28;19982;-61
2022/10/04 02:26:59;;;;;;;1.15;0.70;;;;;;;13.04;53.58;99790.25;3134325;28;20098;-61
2022/10/04 02:28:33;;;;;;;1.10;0.70;;;;;;;13.05;53.57;99799.81;3135713;28;20052;-61
2022/10/04 02:30:07;;;;;;;4.05;0.88;;;;;;;13.08;53.33;99789.16;3136179;28;20349;-62
2022/10/04 02:33:30;;;;;;;3.35;0.70;;;;;;;13.09;53.68;99798.69;3136565;28;20373;-61
2022/10/04 02:35:03;;;;;;;7.43;1.10;;;;;;;13.08;53.42;99795.25;3136555;28;20083;-62
2022/10/04 02:36:38;;;;;;;6.28;0.88;;;;;;;13.11;53.63;99799.47;3131227;28;20045;-62
2022/10/04 02:38:14;;;;;;;4.10;0.80;;;;;;;13.10;53.83;99803.84;3135906;28;20056;-62
2022/10/04 02:39:53;;;;;;;3.80;0.80;;;;;;;13.07;53.79;99801.38;3136335;28;20091;-62
2022/10/04 02:41:30;;;;;;;4.38;0.90;;;;;;;13.06;53.59;99802.31;3136458;28;20045;-61
2022/10/04 02:43:10;;;;;;;4.15;1.05;;;;;;;13.08;53.64;99799.63;3135508;28;20370;-62
2022/10/04 02:44:48;;;;;;;4.07;0.90;;;;;;;13.06;53.71;99801.47;3133648;28;20530;-62
2022/10/04 02:46:24;;;;;;;4.90;1.00;;;;;;;13.04;53.99;99798.09;3135397;28;20170;-62
2022/10/04 02:48:01;;;;;;;1.88;0.80;;;;;;;13.04;54.10;99803.31;3135332;28;20417;-62
2022/10/04 02:49:38;;;;;;;6.72;1.08;;;;;;;13.02;54.19;99794.75;3135024;28;20057;-61
2022/10/04 02:51:24;;;;;;;3.22;0.90;;;;;;;13.05;53.87;99805.88;3134770;28;20563;-61
2022/10/04 02:53:01;;;;;;;7.63;1.25;;;;;;;13.04;54.20;99817.22;3135015;28;20064;-61
2022/10/04 02:54:41;;;;;;;2.65;0.80;;;;;;;12.97;54.58;99808.88;3135469;28;20057;-61
2022/10/04 02:56:13;;;;;;;5.18;0.90;;;;;;;13.01;54.52;99812.16;3136160;28;20048;-61
2022/10/04 02:57:46;;;;;;;2.50;1.02;;;;;;;13.00;54.49;99810.50;3136044;28;20056;-61
2022/10/04 02:59:21;;;;;;;6.05;1.10;;;;;;;12.96;54.55;99812.44;3135106;28;20118;-61
2022/10/04 03:00:59;;;;;;;2.88;1.50;;;;;;;12.96;54.84;99815.06;3135674;28;20063;-61
2022/10/04 03:02:31;;;;;;;1.88;1.00;;;;;;;12.91;55.16;99816.22;3135265;28;20420;-61
2022/10/04 03:04:04;;;;;;;2.63;1.02;;;;;;;12.82;55.19;99801.91;3135566;28;20334;-61
2022/10/04 03:05:36;;;;;;;2.35;0.90;;;;;;;12.91;55.21;99819.69;3135135;28;20400;-61
2022/10/04 03:07:09;;;;;;;3.30;0.90;;;;;;;12.91;55.31;99827.53;3135056;28;20544;-61
2022/10/04 03:08:44;;;;;;;;;;;;;;;12.91;55.25;99824.06;3135512;28;20048;-61
2022/10/04 03:10:17;;;;;;;1.88;0.82;;;;;;;12.93;55.07;99819.63;3135108;28;19924;-61
2022/10/04 03:11:51;;;;;;;1.92;0.65;;;;;;;12.93;54.84;99830.06;3135321;28;20491;-62
2022/10/04 03:13:22;;;;;;;5.82;1.20;;;;;;;12.93;55.02;99820.44;3135820;28;20060;-61
2022/10/04 03:14:56;;;;;;;4.20;0.85;;;;;;;12.93;54.86;99817.84;3136178;28;20468;-62
2022/10/04 03:16:34;;;;;;;1.98;1.15;;;;;;;12.98;55.06;99817.56;3136164;28;20055;-62
2022/10/04 03:18:07;;;;;;;4.15;1.10;;;;;;;12.98;54.94;99822.78;3136011;28;20500;-62
2022/10/04 03:19:39;;;;;;;2.65;0.95;;;;;;;13.01;54.91;99824.41;3135644;28;20052;-62
2022/10/04 03:21:14;;;;;;;6.78;1.10;;;;;;;13.01;54.56;99814.78;3136198;28;20048;-62
2022/10/04 03:22:48;;;;;;;5.13;1.00;;;;;;;13.03;54.51;99819.94;3135862;28;20407;-61
2022/10/04 03:24:47;;;;;;;2.78;0.95;;;;;;;13.01;54.78;99816.56;3135096;28;20441;-62
2022/10/04 03:26:29;;;;;;;3.13;1.15;;;;;;;13.03;54.58;99822.56;3139643;28;20114;-62
2022/10/04 03:28:01;;;;;;;1.10;0.70;;;;;;;13.05;54.28;99811.09;3140183;28;20090;-61
2022/10/04 03:29:34;;;;;;;2.20;1.25;;;;;;;13.05;54.59;99818.94;3139820;28;20098;-61
2022/10/04 03:31:08;;;;;;;4.03;0.82;;;;;;;13.06;54.50;99823.22;3139489;28;20139;-62
2022/10/04 03:32:41;;;;;;;4.30;0.90;;;;;;;13.07;54.60;99816.22;3139743;28;20059;-62
2022/10/04 03:34:16;;;;;;;2.03;1.10;;;;;;;13.08;54.16;99825.78;3139799;28;20056;-61
2022/10/04 03:35:53;;;;;;;1.17;0.88;;;;;;;13.11;54.44;99825.59;3135663;28;20084;-61
2022/10/04 03:37:26;;;;;;;2.35;0.93;;;;;;;13.12;54.16;99816.81;3139831;28;20058;-61
2022/10/04 03:38:59;;;;;;;2.05;0.75;;;;;;;13.11;54.09;99830.84;3139619;28;20052;-61
2022/10/04 03:40:32;;;;;;;2.80;1.05;;;;;;;13.09;54.03;99828.28;3139908;28;20543;-61
2022/10/04 03:42:08;;;;;;;4.47;1.20;;;;;;;13.11;54.16;99826.44;3139733;28;20144;-61
2022/10/04 03:43:45;;;;;;;3.33;1.20;;;;;;;13.12;53.96;99824.66;3139538;28;20116;-61
2022/10/04 03:45:19;;;;;;;3.50;1.10;;;;;;;13.14;54.12;99830.66;3139565;28;20056;-61
2022/10/04 03:46:52;;;;;;;4.05;0.80;;;;;;;13.12;54.00;99827.28;3139590;28;20057;-61
2022/10/04 03:48:31;;;;;;;6.70;1.00;;;;;;;13.13;54.24;99826.34;3139736;28;20541;-62
2022/10/04 03:50:13;;;;;;;6.30;1.33;;;;;;;13.10;54.10;99824.75;3139679;28;20230;-63
2022/10/04 03:51:49;;;;;;;5.07;0.85;;;;;;;13.10;53.93;99824.75;3139243;28;20056;-63
2022/10/04 03:53:29;;;;;;;2.38;1.05;;;;;;;13.10;54.09;99834.34;3139443;28;20056;-63
2022/10/04 03:55:05;;;;;;;3.85;1.27;;;;;;;13.10;53.84;99829.13;3139336;28;20615;-63
2022/10/04 03:56:37;;;;;;;4.18;1.05;;;;;;;13.12;53.74;99835.13;3139402;28;20052;-63
2022/10/04 03:58:11;;;;;;;4.60;0.88;;;;;;;13.12;53.85;99833.34;3139519;28;20053;-63
2022/10/04 03:59:43;;;;;;;3.60;1.00;;;;;;;13.12;53.92;99830.72;3139380;28;20557;-61
2022/10/04 04:01:28;;;;;;;5.03;1.08;;;;;;;13.10;54.04;99830.00;3139474;28;20245;-62
2022/10/04 04:03:06;;;;;;;2.80;1.00;;;;;;;13.12;53.85;99832.50;3139308;28;20518;-61
2022/10/04 04:04:45;;;;;;;3.67;1.20;;;;;;;13.14;53.81;99833.28;3139398;28;20546;-62
2022/10/04 04:06:19;;;;;;;3.35;0.90;;;;;;;13.11;53.97;99836.91;3139520;28;20056;-62
2022/10/04 04:08:01;;;;;;;2.90;0.98;;;;;;;13.08;53.50;99836.22;3139332;28;20091;-62
2022/10/04 04:09:41;;;;;;;1.67;0.80;;;;;;;13.04;53.51;99830.31;3139683;28;20056;-62
2022/10/04 04:11:18;;;;;;;3.22;0.90;;;;;;;13.08;53.78;99834.47;3139033;28;20056;-62
2022/10/04 04:12:56;;;;;;;1.30;0.85;;;;;;;13.00;53.72;99827.97;3139357;28;20052;-62
2022/10/04 04:14:29;;;;;;;1.33;0.80;;;;;;;13.01;53.85;99821.78;3139443;28;20048;-63
2022/10/04 04:16:02;;;;;;;4.90;1.00;;;;;;;13.01;53.54;99830.47;3140017;28;20048;-63
2022/10/04 04:17:40;;;;;;;3.10;1.08;;;;;;;12.97;53.64;99837.66;3139526;28;20080;-62
2022/10/04 04:19:16;;;;;;;2.55;1.00;;;;;;;12.97;53.94;99836.81;3139490;28;20165;-63
2022/10/04 04:20:50;;;;;;;4.97;0.93;;;;;;;12.95;53.90;99843.88;3139340;28;20498;-62
2022/10/04 04:22:22;;;;;;;7.53;1.05;;;;;;;12.94;53.58;99839.59;3138941;28;20760;-63
2022/10/04 04:23:58;;;;;;;3.08;0.98;;;;;;;12.97;53.24;99850.72;3138897;28;20048;-62
2022/10/04 04:25:34;;;;;;;4.10;1.00;;;;;;;12.96;53.23;99843.81;3141077;28;20428;-62
2022/10/04 04:27:07;;;;;;;2.83;0.90;;;;;;;12.96;53.44;99854.25;3141520;28;20044;-62
2022/10/04 04:28:43;;;;;;;3.70;0.83;;;;;;;12.95;53.38;99849.97;3141756;28;20490;-62
2022/10/04 04:30:16;;;;;;;2.97;0.63;;;;;;;12.96;53.34;99846.41;3141562;28;20737;-62
2022/10/04 04:31:54;;;;;;;1.38;0.95;;;;;;;12.96;53.08;99859.50;3141835;28;20213;-62
2022/10/04 04:33:31;;;;;;;2.42;0.88;;;;;;;12.93;52.63;99854.44;3141666;28;20048;-63
2022/10/04 04:35:20;;;;;;;0.95;0.60;;;;;;;12.95;52.83;99860.44;3141844;28;20167;-63
2022/10/04 04:36:58;;;;;;;4.22;1.08;;;;;;;12.94;52.37;99853.50;3140394;28;20117;-62
2022/10/04 04:38:30;;;;;;;3.50;0.70;;;;;;;12.95;52.19;99862.16;3142034;28;20146;-63
2022/10/04 04:40:18;;;;;;;2.15;0.65;;;;;;;12.96;52.22;99859.50;3141236;28;20055;-63
2022/10/04 04:41:50;;;;;;;1.50;0.60;;;;;;;12.98;52.15;99860.25;3141568;28;20144;-63
2022/10/04 04:43:27;;;;;;;5.15;0.75;;;;;;;13.00;51.99;99864.56;3141330;28;20044;-63
2022/10/04 04:45:03;;;;;;;3.33;0.70;;;;;;;13.01;51.74;99876.69;3141415;28;20432;-63
2022/10/04 04:46:38;;;;;;;1.25;0.60;;;;;;;13.02;51.69;99867.94;3141479;28;20088;-62
2022/10/04 04:48:15;;;;;;;2.83;0.90;;;;;;;13.01;51.49;99864.44;3140310;28;20505;-63
2022/10/04 04:49:47;;;;;;;4.13;0.85;;;;;;;13.00;51.60;99864.56;3140938;28;20059;-63
2022/10/04 04:51:24;;;;;;;2.40;0.63;;;;;;;12.99;51.74;99858.50;3141288;28;20056;-63
2022/10/04 04:53:01;;;;;;;3.00;0.98;;;;;;;13.02;51.69;99868.78;3140902;28;20079;-63
2022/10/04 04:54:33;;;;;;;1.58;0.77;;;;;;;13.05;51.64;99870.38;3141298;28;20052;-63
2022/10/04 04:56:06;;;;;;;2.45;1.02;;;;;;;13.04;51.72;99864.28;3141249;28;20421;-63
2022/10/04 04:57:39;;;;;;;;;;;;;;;13.02;51.47;99875.78;3141975;28;20888;-63
2022/10/04 04:59:13;;;;;;;2.58;0.88;;;;;;;13.00;51.33;99865.41;3141129;28;20397;-63
2022/10/04 05:00:52;;;;;;;3.28;0.88;;;;;;;12.99;51.46;99863.72;3141423;28;20052;-63
2022/10/04 05:02:29;;;;;;;9.07;1.08;;;;;;;12.97;51.55;99866.41;3141542;28;20108;-63
2022/10/04 05:04:02;;;;;;;4.40;1.00;;;;;;;12.98;51.55;99870.72;3141257;28;20057;-60
2022/10/04 05:05:36;;;;;;;4.25;0.90;;;;;;;12.96;51.71;99864.72;3141500;28;20052;-61
2022/10/04 05:07:18;;;;;;;2.75;0.70;;;;;;;13.01;51.27;99866.22;3141227;28;20059;-63
2022/10/04 05:08:50;;;;;;;2.03;0.93;;;;;;;13.02;51.56;99874.00;3141254;28;20150;-62
2022/10/04 05:10:30;;;;;;;3.50;0.90;;;;;;;13.02;51.57;99874.00;3141511;28;20044;-63
2022/10/04 05:12:10;;;;;;;4.65;0.88;;;;;;;13.00;51.48;99861.94;3143026;28;20445;-62
2022/10/04 05:13:48;;;;;;;2.40;0.60;;;;;;;13.06;51.30;99867.66;3141121;28;20049;-63
2022/10/04 05:15:19;;;;;;;5.95;1.10;;;;;;;13.09;51.33;99871.91;3140942;28;20445;-64
2022/10/04 05:16:53;;;;;;;3.65;0.90;;;;;;;13.10;51.24;99878.81;3141562;28;20061;-62
2022/10/04 05:18:31;;;;;;;3.50;1.40;;;;;;;13.13;50.96;99876.88;3140789;28;20053;-63
2022/10/04 05:20:05;;;;;;;2.55;0.63;;;;;;;13.13;50.96;99876.88;3141236;28;20537;-65
2022/10/04 05:21:38;;;;;;;2.22;0.90;;;;;;;13.17;51.25;99882.78;3141086;28;20537;-64
2022/10/04 05:23:13;;;;;;;2.72;0.57;;;;;;;13.20;50.89;99878.22;3145893;28;20048;-63
2022/10/04 05:24:48;;;;;;;2.20;0.80;;;;;;;13.23;50.81;99879.00;3146455;28;20398;-61
2022/10/04 05:26:26;;;;;;;1.80;0.85;;;;;;;13.26;51.11;99876.25;3146184;28;20063;-61
2022/10/04 05:27:58;;;;;;;4.22;0.63;;;;;;;13.29;51.04;99887.38;3146142;28;20582;-61
2022/10/04 05:29:35;;;;;;;3.50;0.90;;;;;;;13.33;50.75;99886.25;3146091;28;20045;-61
2022/10/04 05:31:28;;;;;;;2.70;0.70;;;;;;;13.37;50.76;99892.19;3146146;28;20110;-63
2022/10/04 05:33:03;;;;;;;4.10;0.90;;;;;;;13.38;50.96;99893.88;3144118;28;20060;-61
2022/10/04 05:34:39;;;;;;;1.90;0.88;;;;;;;13.45;50.73;99892.59;3145545;28;20418;-61
2022/10/04 05:36:41;;;;;;;2.50;1.10;;;;;;;13.51;50.71;99896.63;3143572;28;20071;-61
2022/10/04 05:38:26;;;;;;;2.25;0.98;;;;;;;13.55;50.66;99900.78;3146081;28;20528;-64
2022/10/04 05:40:14;;;;;;;3.55;0.80;;;;;;;13.62;50.68;99907.34;3136805;28;20070;-63
2022/10/04 05:41:55;;;;;;;3.25;0.70;;;;;;;13.67;50.58;99907.94;3145656;28;20048;-63
2022/10/04 05:43:32;;;;;;;2.28;0.63;;;;;;;13.73;50.39;99912.84;3145725;28;20048;-63
2022/10/04 05:45:14;;;;;;;6.65;2.70;;;;;;;13.78;50.16;99902.09;3145407;28;20059;-65
2022/10/04 05:46:46;;;;;;;4.43;1.83;;;;;;;13.85;49.99;99912.13;3146081;28;20150;-67
2022/10/04 05:48:25;;;;;;;11.73;6.25;;;;;;;13.93;49.74;99914.34;3145620;28;20048;-67
2022/10/04 05:50:00;;;;;;;6.45;1.15;;;;;;;13.99;49.88;99918.34;3145302;28;20057;-64
2022/10/04 05:51:37;;;;;;;3.40;0.85;;;;;;;14.04;49.75;99918.94;3145849;28;20060;-63
2022/10/04 05:53:30;;;;;;;1.23;0.57;;;;;;;14.08;49.26;99928.31;3145570;28;20067;-63
2022/10/04 05:55:18;;;;;;;2.08;0.70;;;;;;;14.10;49.61;99937.75;3145583;28;20505;-63
2022/10/04 05:57:23;;;;;;;3.13;0.63;;;;;;;14.18;49.37;99941.72;3145871;28;20052;-64
2022/10/04 05:59:08;;;;;;;3.63;0.82;;;;;;;14.23;49.21;99953.63;3145842;28;20064;-63
2022/10/04 06:00:55;;;;;;;4.38;0.90;;;;;;;14.24;49.02;99941.34;3145043;28;20055;-63
2022/10/04 06:02:42;;;;;;;3.80;0.88;;;;;;;14.31;49.11;99943.50;3146015;28;20048;-62
2022/10/04 06:04:31;;;;;;;4.10;1.23;;;;;;;14.37;48.92;99954.56;3146228;28;20052;-62
2022/10/04 06:06:15;;;;;;;4.55;0.85;;;;;;;14.38;49.25;99962.38;3146002;28;20583;-63
2022/10/04 06:07:57;;;;;;;1.85;1.00;;;;;;;14.44;49.14;99958.53;3145498;28;20138;-63
2022/10/04 06:09:47;;;;;;;1.50;0.63;;;;;;;14.49;49.12;99959.97;3145719;28;20146;-61
2022/10/04 06:11:32;;;;;;;2.08;0.60;;;;;;;14.54;49.32;99972.81;3145305;28;20151;-65
2022/10/04 06:13:16;;;;;;;3.22;0.82;;;;;;;14.61;49.02;99968.03;3144948;28;20421;-66
2022/10/04 06:15:13;;;;;;;2.30;0.77;;;;;;;14.72;48.93;99961.22;3138445;28;20139;-65
2022/10/04 06:17:03;;;;;;;5.63;0.73;;;;;;;14.89;48.71;99972.50;3137112;28;20081;-65
2022/10/04 06:19:02;;;;;;;2.58;0.90;;;;;;;15.08;48.71;99969.59;3135444;28;20041;-66
2022/10/04 06:21:08;;;;;;;3.60;0.85;;;;;;;15.28;47.90;99971.84;3112972;28;20057;-63
2022/10/04 06:22:44;;;;;;;3.65;0.90;;;;;;;15.46;47.95;99967.22;3134632;28;20463;-66
2022/10/04 06:24:20;;;;;;;1.77;0.75;;;;;;;15.68;47.50;99966.75;3136351;28;20083;-60
2022/10/04 06:25:58;;;;;;;3.15;0.90;;;;;;;15.89;46.70;99975.03;3143150;28;20469;-61
2022/10/04 06:27:39;;;;;;;4.13;0.65;;;;;;;16.08;46.49;99970.25;3137584;28;20044;-64
2022/10/04 06:29:19;;;;;;;1.20;0.57;;;;;;;16.28;46.21;99976.84;3133909;28;20137;-64
2022/10/04 06:31:18;;;;;;;2.92;1.10;;;;;;;16.40;45.30;99974.34;3140239;28;20488;-64
2022/10/04 06:33:16;;;;;;;3.78;1.05;;;;;;;16.47;44.84;99984.34;3137490;28;20052;-63
2022/10/04 06:35:17;;;;;;;2.72;1.10;;;;;;;16.40;44.69;99979.63;3141532;28;20048;-64
2022/10/04 06:37:14;;;;;;;8.05;2.05;;;;;;;16.41;44.84;99987.38;3140735;28;20063;-64
2022/10/04 06:39:17;;;;;;;2.70;1.10;;;;;;;16.51;44.96;99988.47;3100211;28;20132;-63
2022/10/04 06:41:27;;;;;;;4.95;0.95;;;;;;;16.63;44.71;99989.44;3137233;28;20468;-62
2022/10/04 06:43:25;;;;;;;1.92;0.90;;;;;;;16.81;44.42;99985.59;3137789;28;20049;-59
2022/10/04 06:45:20;;;;;;;4.88;1.25;;;;;;;16.76;44.09;99987.69;3134045;28;20044;-62
2022/10/04 06:46:58;;;;;;;;;;;;;;;16.66;43.92;99986.59;3142559;28;20056;-63
2022/10/04 06:49:03;;;;;;;3.35;1.00;;;;;;;16.54;44.24;99990.88;3138376;28;19939;-63
2022/10/04 06:50:46;;;;;;;5.88;0.88;;;;;;;16.50;44.39;99984.13;3142896;28;20044;-61
2022/10/04 06:52:40;;;;;;;3.58;1.20;;;;;;;16.43;44.40;99982.88;3143692;28;20434;-62
2022/10/04 06:54:32;;;;;;;2.65;1.02;;;;;;;16.34;44.65;99986.13;3144582;28;20040;-60
2022/10/04 06:56:30;;;;;;;6.55;1.00;;;;;;;16.22;44.88;99992.19;3143768;28;21052;-67
2022/10/04 06:58:28;;;;;;;6.18;1.33;;;;;;;16.13;44.75;99991.00;3131064;28;20519;-67
2022/10/04 07:00:09;;;;;;;15.20;6.70;;;;;;;16.07;45.19;99992.22;3134343;28;20056;-63
2022/10/04 07:01:49;;;;;;;3.70;1.33;;;;;;;16.02;45.51;99990.84;3134186;28;20592;-63
2022/10/04 07:03:27;;;;;;;2.17;0.93;;;;;;;16.02;45.48;100001.34;3134190;28;20052;-61
2022/10/04 07:05:05;;;;;;;3.88;1.00;;;;;;;16.01;45.37;100002.31;3134330;28;20141;-63
2022/10/04 07:06:42;;;;;;;3.17;0.70;;;;;;;15.96;45.60;100007.84;3134256;28;20052;-66
2022/10/04 07:08:29;;;;;;;7.57;2.63;;;;;;;15.90;45.26;100003.81;3132269;28;20064;-65
2022/10/04 07:10:16;;;;;;;14.35;7.45;;;;;;;15.85;45.31;100007.69;3135962;28;20109;-66
2022/10/04 07:11:54;;;;;;;77.20;42.70;;;;;;;15.77;45.56;100002.09;3135345;28;20519;-70
2022/10/04 07:13:39;;;;;;;5.60;2.13;;;;;;;15.83;45.52;100014.81;3134970;28;20105;-64
2022/10/04 07:15:20;;;;;;;4.65;1.08;;;;;;;15.86;45.32;100009.38;3131645;28;20054;-62
2022/10/04 07:16:58;;;;;;;3.45;1.08;;;;;;;15.93;45.35;100008.03;3134353;28;20056;-62
2022/10/04 07:18:36;;;;;;;5.22;1.10;;;;;;;15.98;45.39;100008.59;3135032;28;20806;-62
2022/10/04 07:20:21;;;;;;;4.88;0.90;;;;;;;16.03;45.18;100011.78;3132888;28;20513;-62
2022/10/04 07:22:00;;;;;;;2.35;0.80;;;;;;;16.05;45.02;100009.88;3134703;28;20075;-62
2022/10/04 07:23:39;;;;;;;4.70;1.38;;;;;;;16.19;44.94;100016.03;3135218;28;20135;-63
2022/10/04 07:25:16;;;;;;;3.85;1.10;;;;;;;16.32;44.61;100019.53;3134085;28;20544;-63
2022/10/04 07:26:52;;;;;;;3.90;0.80;;;;;;;16.38;44.41;100013.88;3134478;28;20151;-64
2022/10/04 07:30:20;;;;;;;11.13;1.60;;;;;;;16.48;44.31;100024.63;3133419;28;20382;-64
2022/10/04 07:32:06;;;;;;;2.83;1.20;;;;;;;16.41;44.48;100026.81;3134267;28;20082;-63
2022/10/04 07:33:44;;;;;;;6.53;0.90;;;;;;;16.69;44.13;100032.88;3134833;28;20056;-61
2022/10/04 07:35:24;;;;;;;4.30;1.10;;;;;;;17.04;43.70;100026.13;3134899;28;20088;-63
2022/10/04 07:36:59;;;;;;;1.80;0.80;;;;;;;17.48;42.87;100035.34;3135576;28;20510;-62
2022/10/04 07:38:34;;;;;;;3.67;1.00;;;;;;;18.04;41.63;100029.63;3134164;28;20150;-63
2022/10/04 07:40:18;;;;;;;6.53;1.02;;;;;;;18.51;40.82;100033.19;3135158;28;20669;-63
2022/10/04 07:42:24;;;;;;;7.07;1.23;;;;;;;18.97;40.33;100029.78;3135223;28;20121;-64
2022/10/04 07:44:01;;;;;;;2.97;0.80;;;;;;;19.31;39.15;100016.59;3105716;28;20057;-62
2022/10/04 07:45:35;;;;;;;5.30;0.80;;;;;;;19.31;39.12;100028.03;3132282;28;20129;-62
2022/10/04 07:47:18;;;;;;;1.50;0.65;;;;;;;19.17;39.00;100025.63;3138534;28;20110;-62
2022/10/04 07:48:50;;;;;;;2.45;1.10;;;;;;;19.24;39.17;100023.34;3139247;28;20056;-62
2022/10/04 07:50:25;;;;;;;2.92;0.80;;;;;;;19.45;38.73;100020.81;3138933;28;20048;-60
2022/10/04 07:52:27;;;;;;;5.80;0.75;;;;;;;19.69;38.17;100016.25;3137421;28;20171;-63